Ventura — ZCDT2 — position and weather

sailwx.info

Track history (hours):
 
Tides and Currents Weather Stations Pressure Air Temp Water Temp Dewpoint Dewpoint Depression Visibility Wind Speed Wind Dir Waves Ship Positions

Ventura

Last reported at 2018-Nov-13 08:00 UTC. Time now 2018-Nov-14 02:42 UTC.
Position N 49°06' W 004°18'.

Length 289 m; draft 8.6 m.

Type: Passenger vessel. MMSI: 310562000.

Wind from 220 at 18 knots

Barometer 1021.7 mb
Air temperature 13.5 ° C
Visibility: greater than 10.8 NM
Dewpoint 9.6 ° C
Water temperature 13.5 ° C

Date/timePositionNaut miles runAvg speedWind from/ knotsBaromVisibWave heightAir tempDewpointWater temp
2018-Nov-13 08:00N 49°06' W 004°18'   220 / 181021.710.8 13.5 9.613.5
2018-Nov-11 02:32N 51°13' E 002°03'917.7
2018-Nov-11 02:02N 51°09' E 001°51'1019.4
2018-Nov-11 01:32N 51°03' E 001°39'1020.8
2018-Nov-11 01:02N 50°57' E 001°26'1020.2
2018-Nov-11 00:32N 50°47' E 001°22'1019.1
2018-Nov-11 00:02N 50°39' E 001°14'1019.0
2018-Nov-10 23:32N 50°33' E 001°02'1020.3
2018-Nov-10 23:02N 50°30' E 000°47'1120.8
2018-Nov-10 22:31N 50°27' E 000°31'1621.2
2018-Nov-10 21:46N 50°22' E 000°07'521.2
2018-Nov-10 21:32N 50°21' W 000°01'1920.2
2018-Nov-10 20:36N 50°27' W 000°28'120.2
2018-Nov-10 20:32N 50°28' W 000°30'1019.7
2018-Nov-10 20:02N 50°33' W 000°43'917.1
2018-Nov-10 19:32N 50°38' W 000°54'714.1
2018-Nov-10 19:02N 50°43' W 001°01'917.3
2018-Nov-10 18:32N 50°46' W 001°14'5 9.9
2018-Nov-10 18:02N 50°50' W 001°19'5 9.9
2018-Nov-10 17:32N 50°53' W 001°24'1 2.3
2018-Nov-10 17:01N 50°54' W 001°26'0 0.0
2018-Nov-10 16:31N 50°54' W 001°26'0 0.0
2018-Nov-10 16:01N 50°54' W 001°26'0 0.0
2018-Nov-10 15:31N 50°54' W 001°26'0 0.0
2018-Nov-10 15:01N 50°54' W 001°26'0 0.0
2018-Nov-10 14:31N 50°54' W 001°26'0 0.0
2018-Nov-10 14:01N 50°54' W 001°26'0 0.0
2018-Nov-10 13:28N 50°54' W 001°26'0 0.0
2018-Nov-10 13:01N 50°54' W 001°26'0 0.0
2018-Nov-10 12:31N 50°54' W 001°26'0 0.0
2018-Nov-10 12:01N 50°54' W 001°26'0 0.0
2018-Nov-10 11:31N 50°54' W 001°26'0 0.0
2018-Nov-10 11:01N 50°54' W 001°26'0 0.0
2018-Nov-10 10:31N 50°54' W 001°26'0 0.0
2018-Nov-10 10:01N 50°54' W 001°26'0 0.0
2018-Nov-10 09:31N 50°54' W 001°26'0 0.0
2018-Nov-10 09:01N 50°54' W 001°26'0 0.0
2018-Nov-10 08:31N 50°54' W 001°26'0 0.0
2018-Nov-10 08:01N 50°54' W 001°26'0 0.0
2018-Nov-10 07:31N 50°54' W 001°26'0 0.0
2018-Nov-10 07:01N 50°54' W 001°26'0 0.0
2018-Nov-10 06:31N 50°54' W 001°26'0 0.9
2018-Nov-10 06:02N 50°54' W 001°26'3 5.3
2018-Nov-10 05:32N 50°53' W 001°23'5 9.8
2018-Nov-10 05:02N 50°49' W 001°18'4 8.0
2018-Nov-10 04:32N 50°47' W 001°13'815.5
2018-Nov-10 04:03N 50°43' W 001°02'612.8
2018-Nov-10 03:32N 50°38' W 000°56'510.7
2018-Nov-10 03:03N 50°34' W 000°59'713.0
2018-Nov-10 02:32N 50°30' W 001°08'611.7
2018-Nov-10 02:02N 50°29' W 001°17'511.2
2018-Nov-10 01:33N 50°27' W 001°25'510.5
2018-Nov-10 01:02N 50°25' W 001°33'611.4
2018-Nov-10 00:32N 50°23' W 001°41'612.3
2018-Nov-10 00:02N 50°20' W 001°49'612.2
2018-Nov-09 23:32N 50°19' W 001°59'711.7
2018-Nov-09 22:57N 50°13' W 002°06'813.5
2018-Nov-09 22:22N 50°06' W 002°11'514.0
2018-Nov-09 21:59N 50°01' W 002°13'613.9
2018-Nov-09 21:32N 49°56' W 002°19'815.4
2018-Nov-09 21:02N 49°54' W 002°30'815.4
2018-Nov-09 20:33N 49°52' W 002°42'1715.3
2018-Nov-09 19:25N 49°42' W 003°04'814.9
2018-Nov-09 18:53N 49°38' W 003°14'714.7
2018-Nov-09 18:24N 49°34' W 003°24'5413.3
2018-Nov-09 14:21N 49°01' W 004°29'412.3
2018-Nov-09 14:02N 48°59' W 004°34'611.9
2018-Nov-09 13:32N 48°56' W 004°41'611.5
2018-Nov-09 13:02N 48°52' W 004°48'714.3
2018-Nov-09 12:33N 48°48' W 004°56'714.0
2018-Nov-09 12:03N 48°43' W 005°05'713.4
2018-Nov-09 11:32N 48°40' W 005°13'613.0
2018-Nov-09 11:03N 48°35' W 005°20'713.1
2018-Nov-09 10:33N 48°30' W 005°26'713.2
2018-Nov-09 10:02N 48°24' W 005°31'2014.3
2018-Nov-09 08:38N 48°07' W 005°46'8919.2
2018-Nov-09 04:00N 46°48' W 006°48'21417.8 230 / 241009.0 5.4 16.0 6.915.3
2018-Nov-08 16:00N 43°42' W 009°18'6215.6 280 / 301005.110.8 13.5 9.614.9
2018-Nov-08 12:00N 42°42' W 009°42'19516.5 250 / 501005.210.8 41.0 15.5
2018-Nov-08 00:08N 39°27' W 009°54'216.4
2018-Nov-08 00:02N 39°25' W 009°55'816.9
2018-Nov-07 23:32N 39°17' W 009°55'612.4
2018-Nov-07 23:02N 39°11' W 009°55'5 9.8
2018-Nov-07 22:32N 39°14' W 009°51'611.4
2018-Nov-07 22:02N 39°08' W 009°50'713.7
2018-Nov-07 21:33N 39°01' W 009°48'815.1
2018-Nov-07 21:03N 38°55' W 009°44'815.7
2018-Nov-07 20:32N 38°47' W 009°42'815.4
2018-Nov-07 20:02N 38°40' W 009°40'714.1
2018-Nov-07 19:33N 38°38' W 009°32'714.2
2018-Nov-07 19:02N 38°37' W 009°23'713.2
2018-Nov-07 18:32N 38°41' W 009°16'612.0
2018-Nov-07 18:02N 38°42' W 009°08'1 2.0
2018-Nov-07 17:30N 38°43' W 009°08'0 0.0
2018-Nov-07 17:00N 38°43' W 009°08'0 0.0
2018-Nov-07 16:30N 38°43' W 009°08'0 0.0
2018-Nov-07 16:00N 38°43' W 009°08'0 0.0
2018-Nov-07 15:30N 38°43' W 009°08'0 0.0
2018-Nov-07 15:00N 38°43' W 009°08'0 0.0
2018-Nov-07 14:30N 38°43' W 009°08'0 0.0
2018-Nov-07 14:00N 38°43' W 009°08'0 0.0
2018-Nov-07 13:30N 38°43' W 009°08'0 0.0
2018-Nov-07 13:00N 38°43' W 009°08'0 0.0
2018-Nov-07 12:30N 38°43' W 009°08'0 0.0
2018-Nov-07 12:00N 38°43' W 009°08'0 0.0
2018-Nov-07 11:30N 38°43' W 009°08'0 0.0
2018-Nov-07 10:57N 38°43' W 009°08'0 0.0
2018-Nov-07 10:27N 38°43' W 009°08'0 0.0
2018-Nov-07 10:00N 38°43' W 009°08'0 0.0
2018-Nov-07 09:27N 38°43' W 009°08'0 0.0
2018-Nov-07 09:00N 38°43' W 009°08'0 0.0
2018-Nov-07 08:30N 38°43' W 009°08'0 0.0
2018-Nov-07 08:00N 38°43' W 009°08'0 0.0
2018-Nov-07 07:32N 38°43' W 009°08'3 6.0
2018-Nov-07 07:03N 38°41' W 009°11'5 9.4
2018-Nov-07 06:33N 38°41' W 009°17'612.2
2018-Nov-07 06:03N 38°37' W 009°23'714.1
2018-Nov-07 05:32N 38°31' W 009°27'815.5
2018-Nov-07 05:03N 38°23' W 009°30'815.4
2018-Nov-07 04:33N 38°16' W 009°33'57116.9
2018-Nov-05 18:49N 29°14' W 013°10'618.0
2018-Nov-05 18:31N 29°08' W 013°12'817.4
2018-Nov-05 18:03N 29°03' W 013°19'118.2
2018-Nov-05 18:00N 29°03' W 013°19'817.0
2018-Nov-05 17:30N 28°58' W 013°28'4 8.2
2018-Nov-05 17:03N 28°58' W 013°32'0 2.9
2018-Nov-05 17:00N 28°58' W 013°32'0 0.6
2018-Nov-05 16:28N 28°58' W 013°32'0 0.0
2018-Nov-05 15:58N 28°58' W 013°32'0 0.0
2018-Nov-05 15:22N 28°58' W 013°32'0 0.0
2018-Nov-05 14:40N 28°58' W 013°32'0 0.0
2018-Nov-05 14:28N 28°58' W 013°32'0 0.0
2018-Nov-05 13:58N 28°58' W 013°32'0 0.0
2018-Nov-05 13:28N 28°58' W 013°32'0 0.0
2018-Nov-05 12:52N 28°58' W 013°32'0 0.0
2018-Nov-05 12:28N 28°58' W 013°32'0 0.0
2018-Nov-05 11:40N 28°58' W 013°32'0 0.0
2018-Nov-05 11:28N 28°58' W 013°32'0 0.0
2018-Nov-05 10:52N 28°58' W 013°32'0 0.0
2018-Nov-05 09:52N 28°58' W 013°32'0 0.0
2018-Nov-05 08:58N 28°58' W 013°32'0 0.0
2018-Nov-05 08:22N 28°58' W 013°32'0 0.0
2018-Nov-05 07:58N 28°58' W 013°32'0 0.0
2018-Nov-05 07:28N 28°58' W 013°32'0 0.0
2018-Nov-05 06:58N 28°58' W 013°32'0 0.1
2018-Nov-05 06:29N 28°58' W 013°32'2 5.3
2018-Nov-05 06:03N 28°56' W 013°33'1 8.9
2018-Nov-05 05:58N 28°55' W 013°33'4 9.2
2018-Nov-05 05:30N 28°52' W 013°37'511.8
2018-Nov-05 05:03N 28°50' W 013°42'111.9
2018-Nov-05 05:00N 28°49' W 013°42'611.8
2018-Nov-05 04:30N 28°48' W 013°49'612.0
2018-Nov-05 04:02N 28°48' W 013°56'211.0
2018-Nov-05 03:52N 28°48' W 013°58'411.1
2018-Nov-05 03:29N 28°48' W 014°03'510.9
2018-Nov-05 03:03N 28°48' W 014°08'010.8
2018-Nov-05 03:00N 28°48' W 014°08'610.4
2018-Nov-05 02:24N 28°47' W 014°16'710.7
2018-Nov-05 01:44N 28°46' W 014°24'1510.4
2018-Nov-05 00:19N 28°44' W 014°40'3 9.9
2018-Nov-05 00:03N 28°42' W 014°42'010.2
2018-Nov-05 00:00N 28°42' W 014°42'510.6
2018-Nov-04 23:29N 28°36' W 014°44'510.8
2018-Nov-04 23:03N 28°32' W 014°45'110.9
2018-Nov-04 23:00N 28°31' W 014°45'511.0
2018-Nov-04 22:30N 28°26' W 014°47'511.3
2018-Nov-04 22:03N 28°21' W 014°50'111.3
2018-Nov-04 22:00N 28°21' W 014°50'611.2
2018-Nov-04 21:30N 28°16' W 014°52'511.0
2018-Nov-04 21:03N 28°11' W 014°54'111.0
2018-Nov-04 21:00N 28°10' W 014°54'5 9.7
2018-Nov-04 20:30N 28°08' W 014°59'510.6
2018-Nov-04 20:03N 28°08' W 015°04'110.6
2018-Nov-04 19:59N 28°08' W 015°05'510.5
2018-Nov-04 19:30N 28°07' W 015°11'510.2
2018-Nov-04 19:03N 28°07' W 015°16'110.3
2018-Nov-04 19:00N 28°07' W 015°17'511.0
2018-Nov-04 18:30N 28°07' W 015°23'3 5.7
2018-Nov-04 18:03N 28°08' W 015°25'0 1.7
2018-Nov-04 18:00N 28°08' W 015°25'0 0.3
2018-Nov-04 17:22N 28°08' W 015°25'0 0.0
2018-Nov-04 16:55N 28°08' W 015°25'0 0.0
2018-Nov-04 16:25N 28°08' W 015°25'0 0.0
2018-Nov-04 15:55N 28°08' W 015°25'0 0.0
2018-Nov-04 15:25N 28°08' W 015°25'0 0.0
2018-Nov-04 14:55N 28°08' W 015°25'0 0.0
2018-Nov-04 14:25N 28°08' W 015°25'0 0.0
2018-Nov-04 13:58N 28°08' W 015°25'0 0.0
2018-Nov-04 13:28N 28°08' W 015°25'0 0.0
2018-Nov-04 12:58N 28°08' W 015°25'0 0.0
2018-Nov-04 12:28N 28°08' W 015°25'0 0.0
2018-Nov-04 11:58N 28°08' W 015°25'0 0.0
2018-Nov-04 11:25N 28°08' W 015°25'0 0.0
2018-Nov-04 11:01N 28°08' W 015°25'0 0.0
2018-Nov-04 10:58N 28°08' W 015°25'0 0.0
2018-Nov-04 10:28N 28°08' W 015°25'0 0.0
2018-Nov-04 10:01N 28°08' W 015°25'0 0.0
2018-Nov-04 09:58N 28°08' W 015°25'0 0.0
2018-Nov-04 09:28N 28°08' W 015°25'0 0.0
2018-Nov-04 09:01N 28°08' W 015°25'0 0.0
2018-Nov-04 08:58N 28°08' W 015°25'0 0.0
2018-Nov-04 08:28N 28°08' W 015°25'0 0.0
2018-Nov-04 08:01N 28°08' W 015°25'0 0.0
2018-Nov-04 07:58N 28°08' W 015°25'0 0.0
2018-Nov-04 07:28N 28°08' W 015°25'0 0.0
2018-Nov-04 07:01N 28°08' W 015°25'0 0.1
2018-Nov-04 06:35N 28°08' W 015°25'0 1.3
2018-Nov-04 06:30N 28°08' W 015°25'2 5.0
2018-Nov-04 06:03N 28°07' W 015°23'0 6.4
2018-Nov-04 06:00N 28°07' W 015°23'611.1
2018-Nov-04 05:30N 28°11' W 015°19'613.6
2018-Nov-04 05:03N 28°17' W 015°17'113.9
2018-Nov-04 05:00N 28°18' W 015°17'815.9
2018-Nov-04 04:30N 28°26' W 015°17'716.4
2018-Nov-04 04:03N 28°30' W 015°24'116.4
2018-Nov-04 04:00N 28°30' W 015°25'816.4
2018-Nov-04 03:30N 28°35' W 015°33'716.4
2018-Nov-04 03:03N 28°39' W 015°40'116.4
2018-Nov-04 03:00N 28°39' W 015°41'816.7
2018-Nov-04 02:30N 28°44' W 015°49'716.2
2018-Nov-04 02:03N 28°48' W 015°56'114.5
2018-Nov-04 02:00N 28°49' W 015°56'813.9
2018-Nov-04 01:27N 28°53' W 016°04'512.9
2018-Nov-04 01:03N 28°53' W 016°10'112.8
2018-Nov-04 00:57N 28°52' W 016°11'713.0
2018-Nov-04 00:23N 28°51' W 016°19'913.1
2018-Nov-03 23:43N 28°50' W 016°29'713.2
2018-Nov-03 23:12N 28°48' W 016°37'613.1
2018-Nov-03 22:45N 28°47' W 016°43'513.0
2018-Nov-03 22:22N 28°46' W 016°49'  
Track history (hours):
 
Tides and Currents Weather Stations Pressure Air Temp Water Temp Dewpoint Dewpoint Depression Visibility Wind Speed Wind Dir Waves Ship Positions

Ventura

Last reported at 2018-Nov-13 08:00 UTC. Time now 2018-Nov-14 02:42 UTC.
Position N 49°06' W 004°18'.

Length 289 m; draft 8.6 m.

Type: Passenger vessel. MMSI: 310562000.

Wind from 220 at 18 knots

Barometer 1021.7 mb
Air temperature 13.5 ° C
Visibility: greater than 10.8 NM
Dewpoint 9.6 ° C
Water temperature 13.5 ° C

Date/timePositionNaut miles runAvg speedWind from/ knotsBaromVisibWave heightAir tempDewpointWater temp
2018-Nov-13 08:00N 49°06' W 004°18'   220 / 181021.710.8 13.5 9.613.5
2018-Nov-11 02:32N 51°13' E 002°03'917.7
2018-Nov-11 02:02N 51°09' E 001°51'1019.4
2018-Nov-11 01:32N 51°03' E 001°39'1020.8
2018-Nov-11 01:02N 50°57' E 001°26'1020.2
2018-Nov-11 00:32N 50°47' E 001°22'1019.1
2018-Nov-11 00:02N 50°39' E 001°14'1019.0
2018-Nov-10 23:32N 50°33' E 001°02'1020.3
2018-Nov-10 23:02N 50°30' E 000°47'1120.8
2018-Nov-10 22:31N 50°27' E 000°31'1621.2
2018-Nov-10 21:46N 50°22' E 000°07'521.2
2018-Nov-10 21:32N 50°21' W 000°01'1920.2
2018-Nov-10 20:36N 50°27' W 000°28'120.2
2018-Nov-10 20:32N 50°28' W 000°30'1019.7
2018-Nov-10 20:02N 50°33' W 000°43'917.1
2018-Nov-10 19:32N 50°38' W 000°54'714.1
2018-Nov-10 19:02N 50°43' W 001°01'917.3
2018-Nov-10 18:32N 50°46' W 001°14'5 9.9
2018-Nov-10 18:02N 50°50' W 001°19'5 9.9
2018-Nov-10 17:32N 50°53' W 001°24'1 2.3
2018-Nov-10 17:01N 50°54' W 001°26'0 0.0
2018-Nov-10 16:31N 50°54' W 001°26'0 0.0
2018-Nov-10 16:01N 50°54' W 001°26'0 0.0
2018-Nov-10 15:31N 50°54' W 001°26'0 0.0
2018-Nov-10 15:01N 50°54' W 001°26'0 0.0
2018-Nov-10 14:31N 50°54' W 001°26'0 0.0
2018-Nov-10 14:01N 50°54' W 001°26'0 0.0
2018-Nov-10 13:28N 50°54' W 001°26'0 0.0
2018-Nov-10 13:01N 50°54' W 001°26'0 0.0
2018-Nov-10 12:31N 50°54' W 001°26'0 0.0
2018-Nov-10 12:01N 50°54' W 001°26'0 0.0
2018-Nov-10 11:31N 50°54' W 001°26'0 0.0
2018-Nov-10 11:01N 50°54' W 001°26'0 0.0
2018-Nov-10 10:31N 50°54' W 001°26'0 0.0
2018-Nov-10 10:01N 50°54' W 001°26'0 0.0
2018-Nov-10 09:31N 50°54' W 001°26'0 0.0
2018-Nov-10 09:01N 50°54' W 001°26'0 0.0
2018-Nov-10 08:31N 50°54' W 001°26'0 0.0
2018-Nov-10 08:01N 50°54' W 001°26'0 0.0
2018-Nov-10 07:31N 50°54' W 001°26'0 0.0
2018-Nov-10 07:01N 50°54' W 001°26'0 0.0
2018-Nov-10 06:31N 50°54' W 001°26'0 0.9
2018-Nov-10 06:02N 50°54' W 001°26'3 5.3
2018-Nov-10 05:32N 50°53' W 001°23'5 9.8
2018-Nov-10 05:02N 50°49' W 001°18'4 8.0
2018-Nov-10 04:32N 50°47' W 001°13'815.5
2018-Nov-10 04:03N 50°43' W 001°02'612.8
2018-Nov-10 03:32N 50°38' W 000°56'510.7
2018-Nov-10 03:03N 50°34' W 000°59'713.0
2018-Nov-10 02:32N 50°30' W 001°08'611.7
2018-Nov-10 02:02N 50°29' W 001°17'511.2
2018-Nov-10 01:33N 50°27' W 001°25'510.5
2018-Nov-10 01:02N 50°25' W 001°33'611.4
2018-Nov-10 00:32N 50°23' W 001°41'612.3
2018-Nov-10 00:02N 50°20' W 001°49'612.2
2018-Nov-09 23:32N 50°19' W 001°59'711.7
2018-Nov-09 22:57N 50°13' W 002°06'813.5
2018-Nov-09 22:22N 50°06' W 002°11'514.0
2018-Nov-09 21:59N 50°01' W 002°13'613.9
2018-Nov-09 21:32N 49°56' W 002°19'815.4
2018-Nov-09 21:02N 49°54' W 002°30'815.4
2018-Nov-09 20:33N 49°52' W 002°42'1715.3
2018-Nov-09 19:25N 49°42' W 003°04'814.9
2018-Nov-09 18:53N 49°38' W 003°14'714.7
2018-Nov-09 18:24N 49°34' W 003°24'5413.3
2018-Nov-09 14:21N 49°01' W 004°29'412.3
2018-Nov-09 14:02N 48°59' W 004°34'611.9
2018-Nov-09 13:32N 48°56' W 004°41'611.5
2018-Nov-09 13:02N 48°52' W 004°48'714.3
2018-Nov-09 12:33N 48°48' W 004°56'714.0
2018-Nov-09 12:03N 48°43' W 005°05'713.4
2018-Nov-09 11:32N 48°40' W 005°13'613.0
2018-Nov-09 11:03N 48°35' W 005°20'713.1
2018-Nov-09 10:33N 48°30' W 005°26'713.2
2018-Nov-09 10:02N 48°24' W 005°31'2014.3
2018-Nov-09 08:38N 48°07' W 005°46'8919.2
2018-Nov-09 04:00N 46°48' W 006°48'21417.8 230 / 241009.0 5.4 16.0 6.915.3
2018-Nov-08 16:00N 43°42' W 009°18'6215.6 280 / 301005.110.8 13.5 9.614.9
2018-Nov-08 12:00N 42°42' W 009°42'19516.5 250 / 501005.210.8 41.0 15.5
2018-Nov-08 00:08N 39°27' W 009°54'216.4
2018-Nov-08 00:02N 39°25' W 009°55'816.9
2018-Nov-07 23:32N 39°17' W 009°55'612.4
2018-Nov-07 23:02N 39°11' W 009°55'5 9.8
2018-Nov-07 22:32N 39°14' W 009°51'611.4
2018-Nov-07 22:02N 39°08' W 009°50'713.7
2018-Nov-07 21:33N 39°01' W 009°48'815.1
2018-Nov-07 21:03N 38°55' W 009°44'815.7
2018-Nov-07 20:32N 38°47' W 009°42'815.4
2018-Nov-07 20:02N 38°40' W 009°40'714.1
2018-Nov-07 19:33N 38°38' W 009°32'714.2
2018-Nov-07 19:02N 38°37' W 009°23'713.2
2018-Nov-07 18:32N 38°41' W 009°16'612.0
2018-Nov-07 18:02N 38°42' W 009°08'1 2.0
2018-Nov-07 17:30N 38°43' W 009°08'0 0.0
2018-Nov-07 17:00N 38°43' W 009°08'0 0.0
2018-Nov-07 16:30N 38°43' W 009°08'0 0.0
2018-Nov-07 16:00N 38°43' W 009°08'0 0.0
2018-Nov-07 15:30N 38°43' W 009°08'0 0.0
2018-Nov-07 15:00N 38°43' W 009°08'0 0.0
2018-Nov-07 14:30N 38°43' W 009°08'0 0.0
2018-Nov-07 14:00N 38°43' W 009°08'0 0.0
2018-Nov-07 13:30N 38°43' W 009°08'0 0.0
2018-Nov-07 13:00N 38°43' W 009°08'0 0.0
2018-Nov-07 12:30N 38°43' W 009°08'0 0.0
2018-Nov-07 12:00N 38°43' W 009°08'0 0.0
2018-Nov-07 11:30N 38°43' W 009°08'0 0.0
2018-Nov-07 10:57N 38°43' W 009°08'0 0.0
2018-Nov-07 10:27N 38°43' W 009°08'0 0.0
2018-Nov-07 10:00N 38°43' W 009°08'0 0.0
2018-Nov-07 09:27N 38°43' W 009°08'0 0.0
2018-Nov-07 09:00N 38°43' W 009°08'0 0.0
2018-Nov-07 08:30N 38°43' W 009°08'0 0.0
2018-Nov-07 08:00N 38°43' W 009°08'0 0.0
2018-Nov-07 07:32N 38°43' W 009°08'3 6.0
2018-Nov-07 07:03N 38°41' W 009°11'5 9.4
2018-Nov-07 06:33N 38°41' W 009°17'612.2
2018-Nov-07 06:03N 38°37' W 009°23'714.1
2018-Nov-07 05:32N 38°31' W 009°27'815.5
2018-Nov-07 05:03N 38°23' W 009°30'815.4
2018-Nov-07 04:33N 38°16' W 009°33'57116.9
2018-Nov-05 18:49N 29°14' W 013°10'618.0
2018-Nov-05 18:31N 29°08' W 013°12'817.4
2018-Nov-05 18:03N 29°03' W 013°19'118.2
2018-Nov-05 18:00N 29°03' W 013°19'817.0
2018-Nov-05 17:30N 28°58' W 013°28'4 8.2
2018-Nov-05 17:03N 28°58' W 013°32'0 2.9
2018-Nov-05 17:00N 28°58' W 013°32'0 0.6
2018-Nov-05 16:28N 28°58' W 013°32'0 0.0
2018-Nov-05 15:58N 28°58' W 013°32'0 0.0
2018-Nov-05 15:22N 28°58' W 013°32'0 0.0
2018-Nov-05 14:40N 28°58' W 013°32'0 0.0
2018-Nov-05 14:28N 28°58' W 013°32'0 0.0
2018-Nov-05 13:58N 28°58' W 013°32'0 0.0
2018-Nov-05 13:28N 28°58' W 013°32'0 0.0
2018-Nov-05 12:52N 28°58' W 013°32'0 0.0
2018-Nov-05 12:28N 28°58' W 013°32'0 0.0
2018-Nov-05 11:40N 28°58' W 013°32'0 0.0
2018-Nov-05 11:28N 28°58' W 013°32'0 0.0
2018-Nov-05 10:52N 28°58' W 013°32'0 0.0
2018-Nov-05 09:52N 28°58' W 013°32'0 0.0
2018-Nov-05 08:58N 28°58' W 013°32'0 0.0
2018-Nov-05 08:22N 28°58' W 013°32'0 0.0
2018-Nov-05 07:58N 28°58' W 013°32'0 0.0
2018-Nov-05 07:28N 28°58' W 013°32'0 0.0
2018-Nov-05 06:58N 28°58' W 013°32'0 0.1
2018-Nov-05 06:29N 28°58' W 013°32'2 5.3
2018-Nov-05 06:03N 28°56' W 013°33'1 8.9
2018-Nov-05 05:58N 28°55' W 013°33'4 9.2
2018-Nov-05 05:30N 28°52' W 013°37'511.8
2018-Nov-05 05:03N 28°50' W 013°42'111.9
2018-Nov-05 05:00N 28°49' W 013°42'611.8
2018-Nov-05 04:30N 28°48' W 013°49'612.0
2018-Nov-05 04:02N 28°48' W 013°56'211.0
2018-Nov-05 03:52N 28°48' W 013°58'411.1
2018-Nov-05 03:29N 28°48' W 014°03'510.9
2018-Nov-05 03:03N 28°48' W 014°08'010.8
2018-Nov-05 03:00N 28°48' W 014°08'610.4
2018-Nov-05 02:24N 28°47' W 014°16'710.7
2018-Nov-05 01:44N 28°46' W 014°24'1510.4
2018-Nov-05 00:19N 28°44' W 014°40'3 9.9
2018-Nov-05 00:03N 28°42' W 014°42'010.2
2018-Nov-05 00:00N 28°42' W 014°42'510.6
2018-Nov-04 23:29N 28°36' W 014°44'510.8
2018-Nov-04 23:03N 28°32' W 014°45'110.9
2018-Nov-04 23:00N 28°31' W 014°45'511.0
2018-Nov-04 22:30N 28°26' W 014°47'511.3
2018-Nov-04 22:03N 28°21' W 014°50'111.3
2018-Nov-04 22:00N 28°21' W 014°50'611.2
2018-Nov-04 21:30N 28°16' W 014°52'511.0
2018-Nov-04 21:03N 28°11' W 014°54'111.0
2018-Nov-04 21:00N 28°10' W 014°54'5 9.7
2018-Nov-04 20:30N 28°08' W 014°59'510.6
2018-Nov-04 20:03N 28°08' W 015°04'110.6
2018-Nov-04 19:59N 28°08' W 015°05'510.5
2018-Nov-04 19:30N 28°07' W 015°11'510.2
2018-Nov-04 19:03N 28°07' W 015°16'110.3
2018-Nov-04 19:00N 28°07' W 015°17'511.0
2018-Nov-04 18:30N 28°07' W 015°23'3 5.7
2018-Nov-04 18:03N 28°08' W 015°25'0 1.7
2018-Nov-04 18:00N 28°08' W 015°25'0 0.3
2018-Nov-04 17:22N 28°08' W 015°25'0 0.0
2018-Nov-04 16:55N 28°08' W 015°25'0 0.0
2018-Nov-04 16:25N 28°08' W 015°25'0 0.0
2018-Nov-04 15:55N 28°08' W 015°25'0 0.0
2018-Nov-04 15:25N 28°08' W 015°25'0 0.0
2018-Nov-04 14:55N 28°08' W 015°25'0 0.0
2018-Nov-04 14:25N 28°08' W 015°25'0 0.0
2018-Nov-04 13:58N 28°08' W 015°25'0 0.0
2018-Nov-04 13:28N 28°08' W 015°25'0 0.0
2018-Nov-04 12:58N 28°08' W 015°25'0 0.0
2018-Nov-04 12:28N 28°08' W 015°25'0 0.0
2018-Nov-04 11:58N 28°08' W 015°25'0 0.0
2018-Nov-04 11:25N 28°08' W 015°25'0 0.0
2018-Nov-04 11:01N 28°08' W 015°25'0 0.0
2018-Nov-04 10:58N 28°08' W 015°25'0 0.0
2018-Nov-04 10:28N 28°08' W 015°25'0 0.0
2018-Nov-04 10:01N 28°08' W 015°25'0 0.0
2018-Nov-04 09:58N 28°08' W 015°25'0 0.0
2018-Nov-04 09:28N 28°08' W 015°25'0 0.0
2018-Nov-04 09:01N 28°08' W 015°25'0 0.0
2018-Nov-04 08:58N 28°08' W 015°25'0 0.0
2018-Nov-04 08:28N 28°08' W 015°25'0 0.0
2018-Nov-04 08:01N 28°08' W 015°25'0 0.0
2018-Nov-04 07:58N 28°08' W 015°25'0 0.0
2018-Nov-04 07:28N 28°08' W 015°25'0 0.0
2018-Nov-04 07:01N 28°08' W 015°25'0 0.1
2018-Nov-04 06:35N 28°08' W 015°25'0 1.3
2018-Nov-04 06:30N 28°08' W 015°25'2 5.0
2018-Nov-04 06:03N 28°07' W 015°23'0 6.4
2018-Nov-04 06:00N 28°07' W 015°23'611.1
2018-Nov-04 05:30N 28°11' W 015°19'613.6
2018-Nov-04 05:03N 28°17' W 015°17'113.9
2018-Nov-04 05:00N 28°18' W 015°17'815.9
2018-Nov-04 04:30N 28°26' W 015°17'716.4
2018-Nov-04 04:03N 28°30' W 015°24'116.4
2018-Nov-04 04:00N 28°30' W 015°25'816.4
2018-Nov-04 03:30N 28°35' W 015°33'716.4
2018-Nov-04 03:03N 28°39' W 015°40'116.4
2018-Nov-04 03:00N 28°39' W 015°41'816.7
2018-Nov-04 02:30N 28°44' W 015°49'716.2
2018-Nov-04 02:03N 28°48' W 015°56'114.5
2018-Nov-04 02:00N 28°49' W 015°56'813.9
2018-Nov-04 01:27N 28°53' W 016°04'512.9
2018-Nov-04 01:03N 28°53' W 016°10'112.8
2018-Nov-04 00:57N 28°52' W 016°11'713.0
2018-Nov-04 00:23N 28°51' W 016°19'913.1
2018-Nov-03 23:43N 28°50' W 016°29'713.2
2018-Nov-03 23:12N 28°48' W 016°37'613.1
2018-Nov-03 22:45N 28°47' W 016°43'513.0
2018-Nov-03 22:22N 28°46' W 016°49'  

Dump ship's entire track history